Time;durP1;ratioP1;P1;durP2;ratioP2;P2;SDS_P1;SDS_P2;PMS_P1;PMS_P2;Temp;Humidity;BMP_temperature;BMP_pressure;BME280_temperature;BME280_humidity;BME280_pressure;Samples;Min_cycle;Max_cycle;Signal;HPM_P1;HPM_P2
2022/02/27 00:04:30;;;;;;;3.30;1.55;;;1.10;99.90;;;;;;21026494;28;20031;-75
2022/02/27 00:14:31;;;;;;;3.85;2.00;;;1.00;99.90;;;;;;21063859;28;20050;-74
2022/02/27 00:24:33;;;;;;;4.10;1.90;;;0.90;99.90;;;;;;20970120;28;20028;-74
2022/02/27 00:34:33;;;;;;;5.32;1.92;;;0.90;99.90;;;;;;20993145;28;20046;-74
2022/02/27 00:44:36;;;;;;;3.30;1.75;;;0.90;99.90;;;;;;20991082;28;20020;-74
2022/02/27 00:54:36;;;;;;;10.13;1.90;;;1.00;99.90;;;;;;20973337;28;20117;-74
2022/02/27 01:04:38;;;;;;;6.32;1.60;;;0.90;99.90;;;;;;20973521;28;20127;-74
2022/02/27 01:14:39;;;;;;;5.03;2.55;;;0.80;99.90;;;;;;20972807;28;20060;-74
2022/02/27 01:24:40;;;;;;;4.88;1.80;;;0.70;99.90;;;;;;20972492;28;20392;-74
2022/02/27 01:34:41;;;;;;;5.13;1.75;;;0.60;99.90;;;;;;20972075;28;20037;-74
2022/02/27 01:44:43;;;;;;;6.07;1.83;;;0.50;99.90;;;;;;20971489;28;20162;-74
2022/02/27 01:54:44;;;;;;;2.20;1.58;;;0.60;99.90;;;;;;20971084;28;20177;-74
2022/02/27 02:04:45;;;;;;;5.30;1.73;;;0.50;99.90;;;;;;20988863;28;20060;-74
2022/02/27 02:14:46;;;;;;;4.65;2.10;;;0.30;99.90;;;;;;20970513;28;20556;-74
2022/02/27 02:24:47;;;;;;;8.40;2.03;;;0.40;99.90;;;;;;20970274;28;20029;-74
2022/02/27 02:34:48;;;;;;;3.30;1.58;;;0.40;99.90;;;;;;20969637;28;20499;-74
2022/02/27 02:44:49;;;;;;;4.50;1.40;;;0.30;99.90;;;;;;20982849;28;20391;-75
2022/02/27 02:54:51;;;;;;;6.75;1.48;;;0.30;99.90;;;;;;21001136;28;20032;-74
2022/02/27 03:04:51;;;;;;;3.30;1.73;;;0.20;99.90;;;;;;21000635;28;20024;-74
2022/02/27 03:14:52;;;;;;;4.32;1.60;;;0.10;99.90;;;;;;20999823;28;20112;-74
2022/02/27 03:24:53;;;;;;;3.17;1.45;;;0.20;99.90;;;;;;20999127;28;20100;-73
2022/02/27 03:34:54;;;;;;;4.80;1.70;;;0.30;99.90;;;;;;20998169;28;20048;-74
2022/02/27 03:44:55;;;;;;;4.10;1.45;;;0.30;99.90;;;;;;20998047;28;20039;-73
2022/02/27 03:54:59;;;;;;;4.20;1.73;;;0.30;99.90;;;;;;20995178;28;20391;-73
2022/02/27 04:05:00;;;;;;;5.88;1.95;;;0.30;99.90;;;;;;20995826;28;20037;-74
2022/02/27 04:15:01;;;;;;;7.13;2.10;;;0.30;99.90;;;;;;20994700;28;20086;-74
2022/02/27 04:25:02;;;;;;;5.80;1.85;;;0.30;99.90;;;;;;20994310;28;20058;-74
2022/02/27 04:35:03;;;;;;;5.30;1.65;;;0.30;99.90;;;;;;20993409;28;20031;-73
2022/02/27 04:45:05;;;;;;;3.60;2.08;;;0.00;99.90;;;;;;20974697;28;20071;-74
2022/02/27 04:55:06;;;;;;;7.53;2.22;;;0.00;99.90;;;;;;20973796;28;20032;-74
2022/02/27 05:05:08;;;;;;;8.63;1.88;;;0.00;99.90;;;;;;20991164;28;20028;-74
2022/02/27 05:15:10;;;;;;;7.00;2.17;;;-0.40;99.90;;;;;;20991037;28;20428;-74
2022/02/27 05:25:12;;;;;;;11.98;1.88;;;-0.40;99.90;;;;;;20990486;28;20474;-74
2022/02/27 05:35:13;;;;;;;4.18;1.73;;;-0.20;99.90;;;;;;20989996;28;20029;-74
2022/02/27 05:45:14;;;;;;;4.25;1.98;;;-0.30;99.90;;;;;;20989697;28;20040;-74
2022/02/27 05:55:18;;;;;;;12.38;2.47;;;-0.40;99.90;;;;;;20989093;28;20128;-73
2022/02/27 06:05:18;;;;;;;3.28;1.92;;;-0.50;99.90;;;;;;20988939;28;20024;-74
2022/02/27 06:15:19;;;;;;;10.85;2.20;;;-0.70;99.90;;;;;;20994360;28;20044;-73
2022/02/27 06:25:21;;;;;;;5.78;1.80;;;-0.50;99.90;;;;;;21003687;28;20056;-74
2022/02/27 06:35:23;;;;;;;8.23;2.10;;;-0.30;99.90;;;;;;20984867;28;20174;-74
2022/02/27 06:45:24;;;;;;;6.22;2.22;;;-0.20;99.90;;;;;;21002430;28;20033;-74
2022/02/27 06:55:25;;;;;;;4.40;2.25;;;0.30;99.90;;;;;;20998301;28;20043;-74
2022/02/27 07:05:26;;;;;;;9.52;2.95;;;0.90;99.90;;;;;;21084682;28;20504;-73
2022/02/27 07:15:27;;;;;;;8.13;3.30;;;1.70;99.90;;;;;;21065210;28;20028;-74
2022/02/27 07:25:27;;;;;;;7.72;3.40;;;2.50;99.90;;;;;;21063649;28;20052;-74
2022/02/27 07:35:28;;;;;;;10.23;3.75;;;3.00;99.90;;;;;;20990122;28;20801;-73
2022/02/27 07:45:29;;;;;;;8.38;2.92;;;4.10;99.90;;;;;;21035776;28;20036;-74
2022/02/27 07:55:30;;;;;;;7.88;2.60;;;4.80;99.90;;;;;;21043179;28;20082;-74
2022/02/27 08:05:31;;;;;;;17.33;8.45;;;5.10;99.90;;;;;;21045932;28;20024;-75
2022/02/27 08:15:32;;;;;;;6.20;2.38;;;5.10;99.90;;;;;;21066098;28;20040;-75
2022/02/27 08:25:33;;;;;;;6.27;3.30;;;5.60;99.90;;;;;;21058747;28;20406;-75
2022/02/27 08:35:34;;;;;;;9.40;3.77;;;6.10;99.90;;;;;;21056990;28;20085;-76
2022/02/27 08:45:35;;;;;;;8.73;2.72;;;6.80;99.90;;;;;;20996392;28;20434;-76
2022/02/27 08:55:36;;;;;;;5.13;2.37;;;7.00;99.90;;;;;;20988477;28;20031;-76
2022/02/27 09:05:37;;;;;;;3.33;2.67;;;7.20;99.90;;;;;;21017932;28;20270;-75
2022/02/27 09:15:38;;;;;;;5.47;2.27;;;7.40;99.90;;;;;;21014708;28;20040;-75
2022/02/27 09:25:39;;;;;;;6.65;2.38;;;7.80;99.90;;;;;;20971789;28;20552;-75
2022/02/27 09:35:40;;;;;;;6.43;2.30;;;7.80;99.90;;;;;;20970608;28;20032;-77
2022/02/27 09:45:41;;;;;;;6.10;2.67;;;8.60;99.90;;;;;;21009435;28;20035;-75
2022/02/27 09:55:42;;;;;;;7.65;2.97;;;8.50;99.90;;;;;;21069847;28;20111;-75
2022/02/27 10:05:45;;;;;;;6.37;2.37;;;8.30;99.90;;;;;;21049424;28;20119;-76
2022/02/27 10:16:02;;;;;;;9.30;3.30;;;8.70;99.90;;;;;;20984920;28;20032;-76
2022/02/27 10:26:19;;;;;;;3.78;2.53;;;8.90;99.90;;;;;;21006166;28;20070;-76
2022/02/27 10:36:20;;;;;;;7.55;3.03;;;9.30;99.90;;;;;;21041259;28;20773;-76
2022/02/27 10:46:25;;;;;;;13.33;3.03;;;9.20;99.90;;;;;;20981663;28;20032;-76
2022/02/27 10:56:33;;;;;;;7.97;3.00;;;9.40;99.90;;;;;;20981987;28;20043;-76
2022/02/27 11:06:34;;;;;;;6.22;2.92;;;9.70;99.90;;;;;;21007529;28;20040;-76
2022/02/27 11:16:35;;;;;;;8.93;3.77;;;10.10;99.90;;;;;;20995742;28;20514;-76
2022/02/27 11:26:36;;;;;;;5.67;2.90;;;10.00;99.90;;;;;;20980294;28;20489;-75
2022/02/27 11:36:41;;;;;;;6.23;2.77;;;10.60;99.90;;;;;;20978665;28;20137;-78
2022/02/27 11:46:44;;;;;;;6.88;2.90;;;11.40;99.90;;;;;;21046596;28;20036;-77
2022/02/27 11:57:07;;;;;;;8.93;4.28;;;11.10;99.90;;;;;;21061078;28;20658;-77
2022/02/27 12:07:09;;;;;;;7.15;3.20;;;11.90;99.90;;;;;;21021064;28;20105;-79
2022/02/27 12:17:10;;;;;;;7.00;3.10;;;12.00;99.90;;;;;;21062353;28;20507;-80
2022/02/27 12:27:14;;;;;;;8.43;3.03;;;12.10;99.90;;;;;;21063411;28;20516;-81
2022/02/27 12:37:16;;;;;;;5.75;2.85;;;11.40;99.90;;;;;;21062994;28;20306;-81
2022/02/27 12:47:20;;;;;;;5.50;2.95;;;11.80;99.90;;;;;;21060801;28;20036;-79
2022/02/27 12:57:23;;;;;;;4.28;2.45;;;12.00;99.90;;;;;;21059862;28;20042;-79
2022/02/27 13:07:27;;;;;;;4.93;2.83;;;12.20;99.90;;;;;;21058127;28;20074;-79
2022/02/27 13:17:33;;;;;;;6.80;3.05;;;11.90;99.90;;;;;;20982352;28;20039;-79
2022/02/27 13:27:39;;;;;;;6.55;2.50;;;12.30;99.90;;;;;;20975832;28;20044;-80
2022/02/27 13:37:41;;;;;;;2.63;2.03;;;11.60;99.90;;;;;;20954755;28;20570;-78
2022/02/27 13:47:47;;;;;;;6.72;2.20;;;12.00;96.40;;;;;;21029299;28;20047;-78
2022/02/27 13:57:48;;;;;;;3.35;1.98;;;12.30;96.80;;;;;;21052987;28;20035;-78
2022/02/27 14:07:51;;;;;;;3.40;1.90;;;11.70;98.10;;;;;;21053440;28;20046;-77
2022/02/27 14:17:53;;;;;;;5.35;2.13;;;11.70;97.40;;;;;;21052534;28;20912;-76
2022/02/27 14:28:05;;;;;;;5.40;2.27;;;10.70;97.10;;;;;;21050655;28;20048;-77
2022/02/27 14:38:06;;;;;;;4.70;1.92;;;11.30;97.30;;;;;;21076278;28;20109;-78
2022/02/27 14:48:06;;;;;;;5.70;2.07;;;11.00;97.00;;;;;;21027931;28;20036;-78
2022/02/27 14:58:07;;;;;;;8.13;1.97;;;11.60;96.00;;;;;;20996427;28;20101;-77
2022/02/27 15:08:09;;;;;;;3.63;2.37;;;11.10;96.30;;;;;;21012321;28;20036;-77
2022/02/27 15:18:10;;;;;;;6.40;3.00;;;11.60;95.30;;;;;;20983708;28;20032;-77
2022/02/27 15:28:11;;;;;;;9.33;3.10;;;10.80;95.10;;;;;;20979457;28;20028;-77
2022/02/27 15:38:12;;;;;;;7.57;4.50;;;11.00;95.20;;;;;;20960127;28;20294;-77
2022/02/27 15:48:12;;;;;;;8.87;2.60;;;10.40;96.80;;;;;;20959499;28;20553;-77
2022/02/27 15:58:13;;;;;;;4.33;2.07;;;10.20;97.80;;;;;;20976932;28;20032;-76
2022/02/27 16:08:14;;;;;;;3.47;2.27;;;9.00;97.70;;;;;;20999939;28;20032;-77
2022/02/27 16:18:15;;;;;;;4.10;2.43;;;9.00;98.80;;;;;;20976939;28;20029;-76
2022/02/27 16:28:16;;;;;;;9.20;2.80;;;8.20;99.90;;;;;;20975026;28;20078;-77
2022/02/27 16:38:19;;;;;;;;;;;7.60;99.90;;;;;;20974058;28;20029;-76
2022/02/27 16:48:21;;;;;;;4.97;2.75;;;7.20;99.90;;;;;;21036611;28;19916;-76
2022/02/27 16:58:22;;;;;;;8.05;2.63;;;7.10;99.90;;;;;;21056195;28;20035;-77
2022/02/27 17:08:23;;;;;;;6.93;2.90;;;6.70;99.90;;;;;;21012957;28;20537;-77
2022/02/27 17:18:26;;;;;;;5.57;2.83;;;6.50;99.90;;;;;;21054526;28;20478;-78
2022/02/27 17:28:27;;;;;;;7.82;3.50;;;6.20;99.90;;;;;;21054158;28;20036;-77
2022/02/27 17:38:28;;;;;;;5.77;2.83;;;6.10;99.90;;;;;;21052889;28;20036;-78
2022/02/27 17:48:29;;;;;;;5.93;3.13;;;5.90;99.90;;;;;;21053338;28;20708;-77
2022/02/27 17:58:30;;;;;;;;;;;5.50;99.90;;;;;;21053868;28;20098;-77
2022/02/27 18:08:31;;;;;;;7.20;3.53;;;5.30;99.90;;;;;;21039786;28;20382;-76
2022/02/27 18:18:35;;;;;;;10.35;4.18;;;5.00;99.90;;;;;;21068919;28;20482;-77
2022/02/27 18:28:36;;;;;;;8.00;4.32;;;4.90;99.90;;;;;;21018287;28;20045;-77
2022/02/27 18:38:37;;;;;;;7.17;4.13;;;4.70;99.90;;;;;;20999770;28;20387;-78
2022/02/27 18:48:39;;;;;;;11.23;4.28;;;4.50;99.90;;;;;;21066852;28;20833;-76
2022/02/27 18:58:39;;;;;;;8.90;4.30;;;4.30;99.90;;;;;;21065488;28;20043;-77
2022/02/27 19:08:40;;;;;;;7.13;4.32;;;4.30;99.90;;;;;;21019947;28;20032;-77
2022/02/27 19:18:42;;;;;;;10.43;5.38;;;4.20;99.90;;;;;;20979910;28;20107;-77
2022/02/27 19:28:44;;;;;;;9.38;5.03;;;4.10;99.90;;;;;;20995392;28;20032;-77
2022/02/27 19:38:45;;;;;;;10.32;5.28;;;4.00;99.90;;;;;;21060517;28;20403;-76
2022/02/27 19:48:45;;;;;;;8.98;5.18;;;3.90;99.90;;;;;;20977727;28;20029;-77
2022/02/27 19:58:46;;;;;;;;;;;3.70;99.90;;;;;;20978236;28;20040;-76
2022/02/27 20:08:48;;;;;;;11.35;5.70;;;3.60;99.90;;;;;;21019437;28;19916;-77
2022/02/27 20:18:48;;;;;;;10.70;5.78;;;3.50;99.90;;;;;;20958418;28;20040;-76
2022/02/27 20:28:49;;;;;;;;;;;3.50;99.90;;;;;;20956733;28;20503;-76
2022/02/27 20:38:50;;;;;;;11.10;5.10;;;3.00;99.90;;;;;;20975937;28;19920;-77
2022/02/27 20:48:51;;;;;;;11.40;5.93;;;2.80;99.90;;;;;;21056602;28;20808;-76
2022/02/27 20:58:52;;;;;;;12.25;6.63;;;3.00;99.90;;;;;;21056541;28;20039;-76
2022/02/27 21:08:53;;;;;;;14.23;6.18;;;2.90;99.90;;;;;;20995084;28;20030;-77
2022/02/27 21:18:54;;;;;;;11.30;5.55;;;2.70;99.90;;;;;;21054900;28;20036;-76
2022/02/27 21:28:55;;;;;;;13.27;5.93;;;2.40;99.90;;;;;;21034798;28;20387;-77
2022/02/27 21:38:56;;;;;;;17.45;7.88;;;2.30;99.90;;;;;;21011335;28;20048;-77
2022/02/27 21:48:57;;;;;;;23.00;8.48;;;2.40;99.90;;;;;;21058713;28;20024;-77
2022/02/27 21:58:59;;;;;;;13.57;5.78;;;2.40;99.90;;;;;;21046310;28;20024;-77
2022/02/27 22:09:04;;;;;;;16.33;6.22;;;2.20;99.90;;;;;;21045278;28;20035;-77
2022/02/27 22:19:06;;;;;;;11.93;6.57;;;2.10;99.90;;;;;;21044079;28;20042;-77
2022/02/27 22:29:09;;;;;;;14.25;6.53;;;2.00;99.90;;;;;;21043620;28;20059;-77
2022/02/27 22:39:10;;;;;;;14.02;6.10;;;1.90;99.90;;;;;;21025117;28;20035;-77
2022/02/27 22:49:11;;;;;;;14.30;5.85;;;2.10;99.90;;;;;;21042472;28;20020;-77
2022/02/27 22:59:12;;;;;;;17.75;7.40;;;1.90;99.90;;;;;;21023389;28;20025;-77
2022/02/27 23:09:13;;;;;;;14.57;6.88;;;1.80;99.90;;;;;;21040621;28;20025;-76
2022/02/27 23:19:15;;;;;;;14.73;6.85;;;1.70;99.90;;;;;;21042381;28;20047;-76
2022/02/27 23:29:16;;;;;;;15.80;6.35;;;1.70;99.90;;;;;;21028761;28;20494;-76
2022/02/27 23:39:17;;;;;;;11.98;6.30;;;1.60;99.90;;;;;;21035441;28;20032;-76
2022/02/27 23:49:17;;;;;;;15.18;6.15;;;1.10;99.90;;;;;;21052076;28;20031;-76
2022/02/27 23:59:18;;;;;;;15.77;7.63;;;0.90;99.90;;;;;;21043249;28;20467;-76
